Time;durP1;ratioP1;P1;durP2;ratioP2;P2;SDS_P1;SDS_P2;PMS_P1;PMS_P2;Temp;Humidity;BMP_temperature;BMP_pressure;BME280_temperature;BME280_humidity;BME280_pressure;Samples;Min_cycle;Max_cycle;Signal;HPM_P1;HPM_P2
2021/10/20 00:02:18;;;;;;;7.93;4.43;;;9.70;99.90;;;;;;5057340;28;20482;-85
2021/10/20 00:04:44;;;;;;;8.98;4.40;;;9.80;99.90;;;;;;5056493;28;20058;-85
2021/10/20 00:07:10;;;;;;;7.25;4.45;;;9.70;99.90;;;;;;5057233;28;20105;-85
2021/10/20 00:09:35;;;;;;;10.07;4.35;;;9.70;99.90;;;;;;5075210;28;20113;-84
2021/10/20 00:12:02;;;;;;;8.68;4.28;;;9.60;99.90;;;;;;5057192;28;20055;-85
2021/10/20 00:14:29;;;;;;;6.53;3.95;;;9.60;99.90;;;;;;5057171;28;20023;-85
2021/10/20 00:16:54;;;;;;;10.10;3.95;;;9.60;99.90;;;;;;5057127;28;20111;-85
2021/10/20 00:19:20;;;;;;;7.53;4.35;;;9.60;99.90;;;;;;5057032;28;20056;-84
2021/10/20 00:21:46;;;;;;;7.50;3.97;;;9.60;99.90;;;;;;5074973;28;20095;-85
2021/10/20 00:24:11;;;;;;;7.07;4.40;;;9.50;99.90;;;;;;5056976;28;20028;-85
2021/10/20 00:26:38;;;;;;;7.40;4.13;;;9.60;99.90;;;;;;5056860;28;20499;-85
2021/10/20 00:29:04;;;;;;;7.60;3.88;;;9.40;99.90;;;;;;5056875;28;20020;-85
2021/10/20 00:31:30;;;;;;;8.65;4.60;;;9.30;99.90;;;;;;5056750;28;20116;-85
2021/10/20 00:33:55;;;;;;;8.52;3.90;;;9.40;99.90;;;;;;5056756;28;20020;-85
2021/10/20 00:36:21;;;;;;;7.53;3.70;;;9.30;99.90;;;;;;5056785;28;20036;-85
2021/10/20 00:38:47;;;;;;;7.85;4.03;;;9.50;99.90;;;;;;5056625;28;20610;-85
2021/10/20 00:41:13;;;;;;;5.95;3.50;;;9.60;99.90;;;;;;5074555;28;20028;-85
2021/10/20 00:43:40;;;;;;;5.68;3.70;;;9.70;99.90;;;;;;5056877;28;20069;-85
2021/10/20 00:46:06;;;;;;;8.70;4.35;;;9.70;99.90;;;;;;5056492;28;20029;-85
2021/10/20 00:48:32;;;;;;;7.50;3.95;;;9.70;99.90;;;;;;5056751;28;20027;-85
2021/10/20 00:50:58;;;;;;;6.97;4.10;;;9.60;99.90;;;;;;5074353;28;20023;-85
2021/10/20 00:53:24;;;;;;;5.50;3.72;;;9.70;99.90;;;;;;5056403;28;20024;-85
2021/10/20 00:55:50;;;;;;;5.80;3.42;;;9.80;99.90;;;;;;5056564;28;20043;-85
2021/10/20 00:58:18;;;;;;;7.20;3.67;;;9.90;99.90;;;;;;5056159;28;20048;-85
2021/10/20 01:00:43;;;;;;;9.23;3.28;;;10.00;99.90;;;;;;5056548;28;20482;-85
2021/10/20 01:03:09;;;;;;;5.22;3.42;;;10.00;99.90;;;;;;5074094;28;20017;-85
2021/10/20 01:05:35;;;;;;;4.70;3.20;;;10.00;99.90;;;;;;5056187;28;20025;-85
2021/10/20 01:08:01;;;;;;;6.90;3.40;;;9.90;99.90;;;;;;5056103;28;20028;-85
2021/10/20 01:10:27;;;;;;;6.30;3.80;;;9.60;99.90;;;;;;5074031;28;20021;-85
2021/10/20 01:12:53;;;;;;;6.30;3.15;;;9.70;99.90;;;;;;5073951;28;20032;-85
2021/10/20 01:15:27;;;;;;;7.40;3.28;;;9.80;99.90;;;;;;5055085;28;20017;-85
2021/10/20 01:17:53;;;;;;;6.45;3.30;;;9.60;99.90;;;;;;5055929;28;20029;-85
2021/10/20 01:20:28;;;;;;;7.63;3.63;;;9.50;99.90;;;;;;5055780;28;20032;-86
2021/10/20 01:22:54;;;;;;;7.28;3.67;;;9.40;99.90;;;;;;5055922;28;20027;-85
2021/10/20 01:25:20;;;;;;;8.77;4.35;;;9.50;99.90;;;;;;5055751;28;20115;-85
2021/10/20 01:27:46;;;;;;;5.68;3.80;;;9.40;99.90;;;;;;5055654;28;20033;-85
2021/10/20 01:30:12;;;;;;;9.40;5.38;;;9.30;99.90;;;;;;5055761;28;20024;-85
2021/10/20 01:32:38;;;;;;;4.88;3.08;;;9.20;99.90;;;;;;5055668;28;20027;-85
2021/10/20 01:35:05;;;;;;;5.60;3.80;;;9.50;99.90;;;;;;5055907;28;20024;-85
2021/10/20 01:37:31;;;;;;;7.40;3.78;;;9.80;99.90;;;;;;5073527;28;20052;-85
2021/10/20 01:39:57;;;;;;;6.15;3.83;;;9.90;99.90;;;;;;5055577;28;20395;-85
2021/10/20 01:42:24;;;;;;;8.95;4.30;;;10.00;99.90;;;;;;5073423;28;20109;-85
2021/10/20 01:44:50;;;;;;;5.43;3.55;;;10.30;99.90;;;;;;5074000;28;20162;-85
2021/10/20 01:47:16;;;;;;;6.70;3.58;;;10.40;99.90;;;;;;5055391;28;20032;-85
2021/10/20 01:49:42;;;;;;;7.18;3.63;;;10.60;99.90;;;;;;5055368;28;20028;-85
2021/10/20 01:52:08;;;;;;;6.72;4.10;;;10.70;99.90;;;;;;5055358;28;20397;-85
2021/10/20 01:54:33;;;;;;;6.13;3.80;;;10.90;99.90;;;;;;5055306;28;20031;-86
2021/10/20 01:56:59;;;;;;;6.82;3.90;;;10.90;99.90;;;;;;5055261;28;20549;-85
2021/10/20 01:59:25;;;;;;;7.53;3.45;;;11.00;99.90;;;;;;5055114;28;20476;-85
2021/10/20 02:01:51;;;;;;;4.88;3.35;;;11.00;99.90;;;;;;5073509;28;20448;-85
2021/10/20 02:04:16;;;;;;;6.65;3.55;;;11.10;99.90;;;;;;5055281;28;20111;-85
2021/10/20 02:06:43;;;;;;;6.40;3.70;;;11.10;99.90;;;;;;5073054;28;20081;-85
2021/10/20 02:09:12;;;;;;;8.82;4.05;;;10.90;99.90;;;;;;5073176;28;20016;-84
2021/10/20 02:11:39;;;;;;;5.47;3.53;;;10.90;99.90;;;;;;5055133;28;20016;-85
2021/10/20 02:14:07;;;;;;;6.95;3.47;;;11.10;99.90;;;;;;5054985;28;20048;-85
2021/10/20 02:16:33;;;;;;;6.55;3.65;;;11.20;99.90;;;;;;5073031;28;20073;-85
2021/10/20 02:18:59;;;;;;;5.57;3.50;;;11.20;99.90;;;;;;5073076;28;20024;-85
2021/10/20 02:21:25;;;;;;;7.45;3.72;;;11.30;99.90;;;;;;5055035;28;20576;-84
2021/10/20 02:23:51;;;;;;;6.05;3.30;;;11.20;99.90;;;;;;5073013;28;20024;-84
2021/10/20 02:26:16;;;;;;;5.97;3.28;;;11.20;99.90;;;;;;5055150;28;20111;-85
2021/10/20 02:28:42;;;;;;;4.43;3.15;;;11.10;99.90;;;;;;5059100;28;20024;-85
2021/10/20 02:31:08;;;;;;;5.90;3.10;;;11.10;99.90;;;;;;5058973;28;20434;-84
2021/10/20 02:33:34;;;;;;;5.78;3.35;;;11.00;99.90;;;;;;5059087;28;20067;-85
2021/10/20 02:35:59;;;;;;;8.90;3.20;;;10.90;99.90;;;;;;5058969;28;20028;-85
2021/10/20 02:38:26;;;;;;;8.82;3.45;;;11.00;99.90;;;;;;5059019;28;20028;-85
2021/10/20 02:40:51;;;;;;;4.93;3.13;;;11.00;99.90;;;;;;5058928;28;20452;-85
2021/10/20 02:43:18;;;;;;;7.15;3.28;;;11.00;99.90;;;;;;5076743;28;20085;-85
2021/10/20 02:45:44;;;;;;;6.47;3.30;;;11.00;99.90;;;;;;5058694;28;20491;-85
2021/10/20 02:48:10;;;;;;;5.18;2.95;;;11.00;99.90;;;;;;5076715;28;20052;-86
2021/10/20 02:50:36;;;;;;;5.20;3.45;;;10.90;99.90;;;;;;5076634;28;20059;-85
2021/10/20 02:53:02;;;;;;;6.75;3.25;;;10.70;99.90;;;;;;5058655;28;20066;-85
2021/10/20 02:55:29;;;;;;;4.88;3.25;;;10.30;99.90;;;;;;5076583;28;20021;-85
2021/10/20 02:57:55;;;;;;;5.97;3.33;;;10.40;99.90;;;;;;5058405;28;20510;-84
2021/10/20 03:00:21;;;;;;;5.63;3.47;;;10.40;99.90;;;;;;5058523;28;20024;-85
2021/10/20 03:02:46;;;;;;;5.88;3.42;;;10.30;99.90;;;;;;5076435;28;20383;-85
2021/10/20 03:05:12;;;;;;;8.00;3.17;;;10.30;99.90;;;;;;5058470;28;20028;-85
2021/10/20 03:07:38;;;;;;;7.35;3.60;;;10.10;99.90;;;;;;5058624;28;20119;-85
2021/10/20 03:10:04;;;;;;;6.10;3.10;;;9.90;99.90;;;;;;5076274;28;20074;-85
2021/10/20 03:12:30;;;;;;;5.22;3.22;;;9.90;99.90;;;;;;5058327;28;20020;-85
2021/10/20 03:14:56;;;;;;;6.03;3.80;;;9.90;99.90;;;;;;5058293;28;20047;-85
2021/10/20 03:17:24;;;;;;;6.45;2.95;;;9.90;99.90;;;;;;5058229;28;20028;-85
2021/10/20 03:19:49;;;;;;;6.85;2.90;;;9.80;99.90;;;;;;5058237;28;20028;-85
2021/10/20 03:22:16;;;;;;;7.90;3.20;;;9.80;99.90;;;;;;5058159;28;20025;-85
2021/10/20 03:24:42;;;;;;;5.43;2.92;;;9.70;99.90;;;;;;5076026;28;20020;-86
2021/10/20 03:27:07;;;;;;;4.43;2.67;;;9.60;99.90;;;;;;5057957;28;20021;-85
2021/10/20 03:29:33;;;;;;;6.15;3.28;;;9.60;99.90;;;;;;5057929;28;20483;-85
2021/10/20 03:31:59;;;;;;;6.70;3.50;;;9.60;99.90;;;;;;5075934;28;20027;-85
2021/10/20 03:34:24;;;;;;;6.93;3.40;;;9.40;99.90;;;;;;5058397;28;20099;-85
2021/10/20 03:36:50;;;;;;;4.28;2.67;;;9.30;99.90;;;;;;5057905;28;20028;-85
2021/10/20 03:39:16;;;;;;;6.30;3.20;;;9.30;99.90;;;;;;5056724;28;20036;-85
2021/10/20 03:41:42;;;;;;;5.45;2.90;;;9.20;99.90;;;;;;5057891;28;20545;-85
2021/10/20 03:44:07;;;;;;;3.33;2.58;;;9.30;99.90;;;;;;5057670;28;20060;-85
2021/10/20 03:46:33;;;;;;;5.10;3.03;;;9.20;99.90;;;;;;5057586;28;20115;-85
2021/10/20 03:48:59;;;;;;;6.22;3.15;;;9.20;99.90;;;;;;5075725;28;20024;-85
2021/10/20 03:51:24;;;;;;;5.47;3.08;;;9.30;99.90;;;;;;5057632;28;20059;-85
2021/10/20 03:53:50;;;;;;;7.22;3.10;;;9.60;99.90;;;;;;5057548;28;20043;-85
2021/10/20 03:56:16;;;;;;;4.90;2.92;;;9.90;99.90;;;;;;5057426;28;20035;-85
2021/10/20 03:58:41;;;;;;;6.30;2.95;;;10.00;99.90;;;;;;5075307;28;20040;-85
2021/10/20 04:01:07;;;;;;;6.22;3.05;;;10.10;99.90;;;;;;5057343;28;20044;-85
2021/10/20 04:03:33;;;;;;;5.13;2.80;;;10.20;99.90;;;;;;5057408;28;20036;-85
2021/10/20 04:05:58;;;;;;;4.97;2.70;;;10.30;99.90;;;;;;5057280;28;20500;-85
2021/10/20 04:08:24;;;;;;;5.13;3.20;;;10.40;99.90;;;;;;5057328;28;20024;-84
2021/10/20 04:10:50;;;;;;;4.88;2.85;;;10.40;99.90;;;;;;5057303;28;20028;-85
2021/10/20 04:13:16;;;;;;;3.97;2.58;;;10.40;99.90;;;;;;5057145;28;20027;-85
2021/10/20 04:15:42;;;;;;;5.05;2.47;;;10.40;99.90;;;;;;5075348;28;20590;-85
2021/10/20 04:18:07;;;;;;;6.90;2.90;;;10.40;99.90;;;;;;5057214;28;20476;-84
2021/10/20 04:20:33;;;;;;;6.80;2.85;;;10.40;99.90;;;;;;5074976;28;20017;-84
2021/10/20 04:22:59;;;;;;;4.93;2.85;;;10.40;99.90;;;;;;5056965;28;20024;-84
2021/10/20 04:25:25;;;;;;;5.75;3.10;;;10.40;99.90;;;;;;5057287;28;20025;-85
2021/10/20 04:27:51;;;;;;;3.88;2.60;;;10.50;99.90;;;;;;5056863;28;20059;-85
2021/10/20 04:30:19;;;;;;;8.18;3.05;;;10.50;99.90;;;;;;5074801;28;20028;-85
2021/10/20 04:32:45;;;;;;;4.95;3.10;;;10.50;99.90;;;;;;5056812;28;20028;-85
2021/10/20 04:35:11;;;;;;;5.32;2.92;;;10.50;99.90;;;;;;5074738;28;20020;-85
2021/10/20 04:37:38;;;;;;;6.00;3.38;;;10.50;99.90;;;;;;5056808;28;20513;-85
2021/10/20 04:40:06;;;;;;;10.73;5.22;;;10.40;99.90;;;;;;5056699;28;20484;-84
2021/10/20 04:42:32;;;;;;;9.07;4.60;;;10.10;99.90;;;;;;5074576;28;20365;-86
2021/10/20 04:44:59;;;;;;;4.97;3.85;;;9.90;99.90;;;;;;5056960;28;20112;-85
2021/10/20 04:47:24;;;;;;;4.85;3.20;;;9.80;99.90;;;;;;5056479;28;20115;-85
2021/10/20 04:49:51;;;;;;;6.28;3.50;;;9.70;99.90;;;;;;5056204;28;20055;-85
2021/10/20 04:52:17;;;;;;;5.50;2.67;;;9.60;99.90;;;;;;5056422;28;20078;-85
2021/10/20 04:54:43;;;;;;;6.40;3.13;;;9.60;99.90;;;;;;5056633;28;20024;-85
2021/10/20 04:57:09;;;;;;;4.35;2.85;;;9.70;99.90;;;;;;5056047;28;20533;-85
2021/10/20 04:59:35;;;;;;;5.45;3.15;;;9.60;99.90;;;;;;5074199;28;20480;-85
2021/10/20 05:02:02;;;;;;;13.27;7.57;;;9.60;99.90;;;;;;5056303;28;20515;-85
2021/10/20 05:04:28;;;;;;;11.85;6.45;;;9.50;99.90;;;;;;5056120;28;20031;-85
2021/10/20 05:06:54;;;;;;;10.98;3.65;;;9.40;99.90;;;;;;5056098;28;20492;-85
2021/10/20 05:09:19;;;;;;;5.15;3.25;;;9.60;99.90;;;;;;5056234;28;20031;-85
2021/10/20 05:11:45;;;;;;;6.30;3.22;;;9.50;99.90;;;;;;5074019;28;20062;-85
2021/10/20 05:14:11;;;;;;;4.30;3.00;;;9.40;99.90;;;;;;5056025;28;20059;-85
2021/10/20 05:16:37;;;;;;;8.20;3.38;;;9.30;99.90;;;;;;5055728;28;20020;-84
2021/10/20 05:19:02;;;;;;;5.90;3.45;;;9.30;99.90;;;;;;5055796;28;20086;-84
2021/10/20 05:21:28;;;;;;;5.82;4.20;;;9.30;99.90;;;;;;5056089;28;20093;-85
2021/10/20 05:23:54;;;;;;;10.82;4.18;;;9.20;99.90;;;;;;5055925;28;20078;-85
2021/10/20 05:26:21;;;;;;;7.60;4.47;;;9.30;99.90;;;;;;5073771;28;20025;-85
2021/10/20 05:28:47;;;;;;;9.75;3.92;;;9.20;99.90;;;;;;5055843;28;20027;-84
2021/10/20 05:31:13;;;;;;;10.48;5.25;;;9.20;99.90;;;;;;5055713;28;20372;-85
2021/10/20 05:33:39;;;;;;;7.45;4.38;;;9.20;99.90;;;;;;5055703;28;20081;-85
2021/10/20 05:36:05;;;;;;;6.82;4.03;;;9.10;99.90;;;;;;5055698;28;20021;-85
2021/10/20 05:38:31;;;;;;;5.88;4.03;;;9.30;99.90;;;;;;5055579;28;20043;-84
2021/10/20 05:40:57;;;;;;;6.72;4.18;;;9.40;99.90;;;;;;5055541;28;20025;-83
2021/10/20 05:43:23;;;;;;;10.88;4.53;;;9.30;99.90;;;;;;5073436;28;20100;-83
2021/10/20 05:45:49;;;;;;;11.88;4.57;;;9.30;99.90;;;;;;5055374;28;20025;-83
2021/10/20 05:48:15;;;;;;;7.57;4.32;;;9.10;99.90;;;;;;5055427;28;20569;-83
2021/10/20 05:50:42;;;;;;;6.72;4.28;;;8.90;99.90;;;;;;5055338;28;20020;-83
2021/10/20 05:53:08;;;;;;;7.45;3.65;;;8.80;99.90;;;;;;5055376;28;20029;-83
2021/10/20 05:55:34;;;;;;;7.43;3.80;;;8.80;99.90;;;;;;5055346;28;20032;-83
2021/10/20 05:58:00;;;;;;;4.65;3.38;;;8.90;99.90;;;;;;5072989;28;20400;-83
2021/10/20 06:00:25;;;;;;;5.28;3.50;;;9.00;99.90;;;;;;5055296;28;20032;-83
2021/10/20 06:02:52;;;;;;;4.70;3.70;;;8.90;99.90;;;;;;5054697;28;20024;-83
2021/10/20 06:05:17;;;;;;;7.35;3.75;;;9.10;99.90;;;;;;5055185;28;20024;-83
2021/10/20 06:07:45;;;;;;;10.75;4.18;;;9.20;99.90;;;;;;5055130;28;20029;-83
2021/10/20 06:10:12;;;;;;;8.13;4.53;;;9.20;99.90;;;;;;5055186;28;20044;-83
2021/10/20 06:12:39;;;;;;;9.70;3.92;;;9.10;99.90;;;;;;5055078;28;20020;-83
2021/10/20 06:15:06;;;;;;;7.35;3.28;;;9.10;99.90;;;;;;5055181;28;20513;-83
2021/10/20 06:17:33;;;;;;;9.18;4.55;;;9.40;99.90;;;;;;5055060;28;20077;-83
2021/10/20 06:19:59;;;;;;;6.88;3.90;;;9.30;99.90;;;;;;5055351;28;20035;-83
2021/10/20 06:22:25;;;;;;;9.65;5.10;;;9.30;99.90;;;;;;5072998;28;20028;-83
2021/10/20 06:24:50;;;;;;;8.48;4.10;;;9.10;99.90;;;;;;5055002;28;20028;-83
2021/10/20 06:27:16;;;;;;;11.32;4.45;;;9.00;99.90;;;;;;5054910;28;20031;-83
2021/10/20 06:29:42;;;;;;;12.38;3.97;;;9.00;99.90;;;;;;5054895;28;20024;-83
2021/10/20 06:32:08;;;;;;;67.35;46.97;;;9.30;99.90;;;;;;5054986;28;20020;-83
2021/10/20 06:34:33;;;;;;;42.60;32.22;;;9.50;99.90;;;;;;5054959;28;20112;-83
2021/10/20 06:36:59;;;;;;;13.65;9.57;;;9.60;99.90;;;;;;5072936;28;20622;-83
2021/10/20 06:39:25;;;;;;;13.63;8.65;;;9.70;99.90;;;;;;5054828;28;20029;-83
2021/10/20 06:41:51;;;;;;;14.98;6.15;;;9.70;99.90;;;;;;5054889;28;20064;-83
2021/10/20 06:44:17;;;;;;;8.13;4.57;;;9.70;99.90;;;;;;5054807;28;20070;-83
2021/10/20 06:46:43;;;;;;;12.20;5.55;;;9.80;99.90;;;;;;5054697;28;20111;-83
2021/10/20 06:49:09;;;;;;;10.10;5.38;;;10.00;99.90;;;;;;5054841;28;20031;-83
2021/10/20 06:51:35;;;;;;;10.48;5.55;;;10.20;99.90;;;;;;5054810;28;20032;-83
2021/10/20 06:54:01;;;;;;;7.43;4.60;;;10.30;99.90;;;;;;5054711;28;20024;-84
2021/10/20 06:56:27;;;;;;;12.05;6.30;;;10.40;99.90;;;;;;5072701;28;20104;-83
2021/10/20 06:58:53;;;;;;;8.82;5.53;;;10.50;99.90;;;;;;5073191;28;20057;-83
2021/10/20 07:01:18;;;;;;;9.05;5.50;;;10.60;99.90;;;;;;5054661;28;20391;-84
2021/10/20 07:03:44;;;;;;;7.95;6.03;;;10.50;99.90;;;;;;5054678;28;20021;-83
2021/10/20 07:06:11;;;;;;;10.05;5.18;;;10.70;99.90;;;;;;5054587;28;20031;-83
2021/10/20 07:08:36;;;;;;;9.45;5.13;;;10.80;99.90;;;;;;5054546;28;20020;-84
2021/10/20 07:11:02;;;;;;;9.27;4.53;;;10.80;99.90;;;;;;5055193;28;20017;-83
2021/10/20 07:13:28;;;;;;;8.38;6.10;;;10.90;99.90;;;;;;5056561;28;20032;-83
2021/10/20 07:15:54;;;;;;;9.55;6.50;;;10.90;99.90;;;;;;5058240;28;20537;-83
2021/10/20 07:18:21;;;;;;;9.90;5.72;;;11.10;99.90;;;;;;5058217;28;20028;-83
2021/10/20 07:20:47;;;;;;;12.98;7.28;;;11.30;99.90;;;;;;5058211;28;20539;-83
2021/10/20 07:23:12;;;;;;;7.57;4.80;;;11.50;99.90;;;;;;5076428;28;20257;-83
2021/10/20 07:25:38;;;;;;;9.45;5.13;;;11.80;99.90;;;;;;5058094;28;20060;-84
2021/10/20 07:28:04;;;;;;;10.35;5.50;;;12.10;99.90;;;;;;5057997;28;20032;-83
2021/10/20 07:30:30;;;;;;;9.70;5.32;;;12.30;99.90;;;;;;5075961;28;20031;-83
2021/10/20 07:32:56;;;;;;;7.28;4.75;;;12.50;99.90;;;;;;5058006;28;20024;-83
2021/10/20 07:35:22;;;;;;;6.88;4.05;;;12.60;99.90;;;;;;5075960;28;20071;-83
2021/10/20 07:37:48;;;;;;;7.88;3.83;;;12.80;99.90;;;;;;5057869;28;20024;-84
2021/10/20 07:40:15;;;;;;;9.15;3.45;;;12.90;99.90;;;;;;5057860;28;20492;-83
2021/10/20 07:42:44;;;;;;;6.22;3.65;;;13.00;99.90;;;;;;5075823;28;20021;-84
2021/10/20 07:45:15;;;;;;;7.47;3.58;;;13.20;99.90;;;;;;5057747;28;20024;-83
2021/10/20 07:47:43;;;;;;;7.32;3.55;;;13.30;99.90;;;;;;5057670;28;20029;-84
2021/10/20 07:50:09;;;;;;;5.18;3.63;;;13.20;99.90;;;;;;5057682;28;20364;-84
2021/10/20 07:52:35;;;;;;;9.07;3.50;;;13.20;99.90;;;;;;5057543;28;20028;-84
2021/10/20 07:55:03;;;;;;;6.07;3.40;;;13.30;99.90;;;;;;5057612;28;20131;-85
2021/10/20 07:57:29;;;;;;;7.72;3.13;;;13.50;99.90;;;;;;5057258;28;20040;-83
2021/10/20 07:59:55;;;;;;;6.20;3.25;;;13.70;99.90;;;;;;5057485;28;20434;-83
2021/10/20 08:02:21;;;;;;;9.05;3.10;;;13.80;99.90;;;;;;5057435;28;20074;-83
2021/10/20 08:04:47;;;;;;;8.48;3.10;;;13.90;99.90;;;;;;5057375;28;20060;-82
2021/10/20 08:07:13;;;;;;;5.65;2.97;;;14.00;99.90;;;;;;5075253;28;20501;-82
2021/10/20 08:09:39;;;;;;;4.00;2.72;;;14.30;99.90;;;;;;5075284;28;20099;-84
2021/10/20 08:12:05;;;;;;;5.72;3.10;;;14.50;99.90;;;;;;5057286;28;20052;-84
2021/10/20 08:14:32;;;;;;;3.58;2.17;;;14.80;99.90;;;;;;5057197;28;20020;-83
2021/10/20 08:16:58;;;;;;;5.18;3.22;;;15.10;99.90;;;;;;5075108;28;20043;-84
2021/10/20 08:19:23;;;;;;;5.10;2.78;;;15.30;99.90;;;;;;5057088;28;20028;-83
2021/10/20 08:21:49;;;;;;;5.32;3.05;;;15.30;99.90;;;;;;5057138;28;20548;-83
2021/10/20 08:24:15;;;;;;;6.55;2.90;;;15.40;99.90;;;;;;5056445;28;20054;-83
2021/10/20 08:26:40;;;;;;;4.88;2.35;;;15.50;99.90;;;;;;5056927;28;20025;-84
2021/10/20 08:29:08;;;;;;;5.30;2.95;;;15.50;99.90;;;;;;5075221;28;20075;-84
2021/10/20 08:31:33;;;;;;;6.45;2.78;;;15.50;99.90;;;;;;5056902;28;20388;-84
2021/10/20 08:33:59;;;;;;;6.03;3.00;;;15.50;99.90;;;;;;5056792;28;20028;-83
2021/10/20 08:36:25;;;;;;;8.63;2.65;;;15.40;99.90;;;;;;5056741;28;20077;-83
2021/10/20 08:38:50;;;;;;;16.63;3.45;;;15.20;99.90;;;;;;5074696;28;20032;-82
2021/10/20 08:41:16;;;;;;;13.00;2.97;;;15.10;99.90;;;;;;5056850;28;20142;-84
2021/10/20 08:43:42;;;;;;;9.85;2.90;;;15.20;99.90;;;;;;5057234;28;20483;-83
2021/10/20 08:46:08;;;;;;;4.68;2.70;;;15.20;99.90;;;;;;5074657;28;20483;-82
2021/10/20 08:48:35;;;;;;;4.88;2.90;;;15.40;99.90;;;;;;5074718;28;20499;-83
2021/10/20 08:51:02;;;;;;;10.35;3.47;;;15.40;99.90;;;;;;5056406;28;20133;-84
2021/10/20 08:53:29;;;;;;;4.97;3.17;;;15.20;99.90;;;;;;5056376;28;20051;-84
2021/10/20 08:55:56;;;;;;;20.98;4.18;;;15.30;99.90;;;;;;5056300;28;20434;-83
2021/10/20 08:58:22;;;;;;;8.18;3.33;;;15.50;99.90;;;;;;5056124;28;20173;-84
2021/10/20 09:00:48;;;;;;;402.45;27.20;;;15.50;99.90;;;;;;5056272;28;20383;-83
2021/10/20 09:03:14;;;;;;;115.95;9.18;;;15.60;99.90;;;;;;5056183;28;20017;-84
2021/10/20 09:05:40;;;;;;;280.40;18.85;;;15.50;99.90;;;;;;5056092;28;20024;-85
2021/10/20 09:08:06;;;;;;;30.80;5.32;;;15.60;99.90;;;;;;5074276;28;20036;-83
2021/10/20 09:10:33;;;;;;;18.95;3.80;;;16.00;99.90;;;;;;5056143;28;20442;-83
2021/10/20 09:13:00;;;;;;;5.22;2.92;;;16.20;99.90;;;;;;5056307;28;20046;-83
2021/10/20 09:15:45;;;;;;;7.63;2.88;;;16.00;99.90;;;;;;5056750;28;20376;-82
2021/10/20 09:18:12;;;;;;;5.10;2.97;;;16.30;99.90;;;;;;5073851;28;20036;-83
2021/10/20 09:20:46;;;;;;;6.03;2.92;;;16.20;99.90;;;;;;5055849;28;20503;-85
2021/10/20 09:23:16;;;;;;;6.15;2.60;;;16.50;99.90;;;;;;5055908;28;20428;-88
2021/10/20 09:25:56;;;;;;;5.90;2.65;;;16.60;99.90;;;;;;5073963;28;20082;-89
2021/10/20 09:28:34;;;;;;;5.38;2.70;;;16.80;99.90;;;;;;5056066;28;20036;-86
2021/10/20 09:31:02;;;;;;;8.20;2.67;;;16.90;99.90;;;;;;5055759;28;20594;-89
2021/10/20 09:33:32;;;;;;;4.05;2.22;;;17.10;99.90;;;;;;5056210;28;20078;-86
2021/10/20 09:36:09;;;;;;;3.15;2.22;;;17.60;99.90;;;;;;5055315;28;20396;-89
2021/10/20 09:38:45;;;;;;;9.68;2.50;;;18.10;99.90;;;;;;5074243;28;20025;-86
2021/10/20 09:41:12;;;;;;;7.13;2.17;;;18.20;99.90;;;;;;5073987;28;20021;-88
2021/10/20 09:43:43;;;;;;;7.10;2.17;;;18.50;99.90;;;;;;5073647;28;20021;-86
2021/10/20 09:46:10;;;;;;;3.40;1.70;;;18.80;99.90;;;;;;5055798;28;20027;-87
2021/10/20 09:48:40;;;;;;;3.30;1.40;;;19.10;99.90;;;;;;5056241;28;20024;-88
2021/10/20 09:51:13;;;;;;;6.38;1.83;;;19.40;99.90;;;;;;5073641;28;20020;-87
2021/10/20 09:53:44;;;;;;;2.63;1.40;;;19.70;99.90;;;;;;5073436;28;20021;-84
2021/10/20 09:56:32;;;;;;;4.93;1.50;;;19.40;99.90;;;;;;5073388;28;20021;-86
2021/10/20 09:58:59;;;;;;;4.35;1.55;;;19.80;99.90;;;;;;5073225;28;20089;-88
2021/10/20 10:01:27;;;;;;;4.60;1.40;;;19.80;99.90;;;;;;5073513;28;20028;-88
2021/10/20 10:03:56;;;;;;;9.07;1.60;;;19.90;99.90;;;;;;5073389;28;20032;-85
2021/10/20 10:06:22;;;;;;;9.68;1.73;;;19.80;99.90;;;;;;5055187;28;20032;-87
2021/10/20 10:08:48;;;;;;;2.63;1.45;;;19.80;99.90;;;;;;5055314;28;20025;-87
2021/10/20 10:11:14;;;;;;;3.22;1.70;;;19.70;99.90;;;;;;5073572;28;20017;-89
2021/10/20 10:13:51;;;;;;;3.60;1.50;;;19.70;99.90;;;;;;5073643;28;20375;-89
2021/10/20 10:16:20;;;;;;;5.63;1.40;;;20.30;99.90;;;;;;5056042;28;20032;-89
2021/10/20 10:18:47;;;;;;;4.40;1.33;;;20.60;99.90;;;;;;5055375;28;20156;-88
2021/10/20 10:21:37;;;;;;;4.03;1.70;;;20.60;99.90;;;;;;5073080;28;20509;-89
2021/10/20 10:24:19;;;;;;;3.90;1.60;;;20.30;99.90;;;;;;5073134;28;20032;-88
2021/10/20 10:27:06;;;;;;;4.57;1.60;;;20.30;99.90;;;;;;5055098;28;20032;-83
2021/10/20 10:29:35;;;;;;;2.15;1.50;;;20.00;99.90;;;;;;5056784;28;20111;-85
2021/10/20 10:32:06;;;;;;;3.67;1.60;;;19.30;99.90;;;;;;5056191;28;20016;-85
2021/10/20 10:34:35;;;;;;;2.67;1.40;;;19.40;99.90;;;;;;5055079;28;20021;-84
2021/10/20 10:37:02;;;;;;;5.78;1.67;;;19.80;99.90;;;;;;5055024;28;20384;-85
2021/10/20 10:39:29;;;;;;;2.95;1.20;;;20.40;99.90;;;;;;5055009;28;20035;-84
2021/10/20 10:42:04;;;;;;;4.13;1.40;;;20.70;99.90;;;;;;5054960;28;20025;-87
2021/10/20 10:44:49;;;;;;;4.63;1.77;;;20.10;99.90;;;;;;5072956;28;20033;-85
2021/10/20 10:47:19;;;;;;;3.80;1.58;;;20.10;99.90;;;;;;5054889;28;20029;-85
2021/10/20 10:49:56;;;;;;;2.60;1.27;;;20.80;99.90;;;;;;5058808;28;20472;-84
2021/10/20 10:52:41;;;;;;;4.40;2.13;;;21.10;99.90;;;;;;5059003;28;20070;-86
2021/10/20 10:55:19;;;;;;;2.45;1.45;;;20.60;99.90;;;;;;5058863;28;20052;-87
2021/10/20 10:57:59;;;;;;;2.40;1.10;;;20.40;99.90;;;;;;5055109;28;20037;-85
2021/10/20 11:00:26;;;;;;;2.13;1.40;;;20.90;99.90;;;;;;5055373;28;20025;-84
2021/10/20 11:02:56;;;;;;;2.70;1.45;;;21.20;99.90;;;;;;5056840;28;20032;-86
2021/10/20 11:05:32;;;;;;;2.63;1.85;;;20.80;99.90;;;;;;5056628;28;20028;-86
2021/10/20 11:08:04;;;;;;;2.10;1.38;;;21.10;99.90;;;;;;5056438;28;20029;-85
2021/10/20 11:10:31;;;;;;;4.40;1.60;;;21.30;99.90;;;;;;5055167;28;20017;-85
2021/10/20 11:12:58;;;;;;;5.65;1.73;;;21.90;99.90;;;;;;5055099;28;20025;-87
2021/10/20 11:15:31;;;;;;;3.63;1.50;;;22.40;99.90;;;;;;5055142;28;20432;-84
2021/10/20 11:17:58;;;;;;;5.28;1.92;;;22.40;99.90;;;;;;5055051;28;20031;-86
2021/10/20 11:20:26;;;;;;;3.08;1.50;;;22.60;99.90;;;;;;5056318;28;20021;-84
2021/10/20 11:23:00;;;;;;;3.90;1.20;;;22.40;99.90;;;;;;5056236;28;20072;-86
2021/10/20 11:25:25;;;;;;;3.05;1.63;;;22.70;99.90;;;;;;5055031;28;20036;-88
2021/10/20 11:27:56;;;;;;;5.15;1.40;;;23.40;99.90;;;;;;5055993;28;20033;-86
2021/10/20 11:30:27;;;;;;;5.03;1.60;;;22.90;99.90;;;;;;5054745;28;20028;-87
2021/10/20 11:32:53;;;;;;;4.68;1.40;;;22.30;99.90;;;;;;5054822;28;20028;-85
2021/10/20 11:35:21;;;;;;;3.10;1.10;;;22.40;99.90;;;;;;5054561;28;20112;-85
2021/10/20 11:38:10;;;;;;;3.78;1.30;;;22.80;99.90;;;;;;5054603;28;20036;-85
2021/10/20 11:40:39;;;;;;;4.13;1.38;;;23.30;99.90;;;;;;5054533;28;20120;-84
2021/10/20 11:43:18;;;;;;;4.68;1.40;;;23.50;99.90;;;;;;5054599;28;20360;-85
2021/10/20 11:45:44;;;;;;;2.42;1.30;;;23.40;99.90;;;;;;5054514;28;20131;-86
2021/10/20 11:48:14;;;;;;;3.00;1.10;;;22.60;99.90;;;;;;5054677;28;20025;-84
2021/10/20 11:50:40;;;;;;;4.22;1.20;;;21.70;99.90;;;;;;5055757;28;20021;-84
2021/10/20 11:53:08;;;;;;;8.80;1.52;;;21.20;99.90;;;;;;5054390;28;20383;-85
2021/10/20 11:55:43;;;;;;;4.07;1.60;;;22.50;99.90;;;;;;5054327;28;20492;-85
2021/10/20 11:58:34;;;;;;;3.78;1.40;;;23.00;99.90;;;;;;5054277;28;20048;-86
2021/10/20 12:01:03;;;;;;;2.58;1.15;;;24.00;99.90;;;;;;5054468;28;20024;-84
2021/10/20 12:03:36;;;;;;;4.38;1.48;;;23.90;99.90;;;;;;5054590;28;20079;-86
2021/10/20 12:06:06;;;;;;;3.20;1.30;;;23.80;99.90;;;;;;5054327;28;20086;-86
2021/10/20 12:08:33;;;;;;;2.83;1.40;;;23.80;99.90;;;;;;5054381;28;20484;-86
2021/10/20 12:10:59;;;;;;;4.45;1.38;;;23.30;99.90;;;;;;5053983;28;20025;-84
2021/10/20 12:13:26;;;;;;;2.85;1.40;;;23.40;99.90;;;;;;5053982;28;20496;-87
2021/10/20 12:15:52;;;;;;;7.38;1.23;;;23.50;99.90;;;;;;5053954;28;20017;-86
2021/10/20 12:18:18;;;;;;;4.60;1.33;;;22.70;99.90;;;;;;5053949;28;20071;-85
2021/10/20 12:20:59;;;;;;;1.90;1.20;;;22.50;99.90;;;;;;5053888;28;20029;-85
2021/10/20 12:23:35;;;;;;;3.60;1.15;;;22.20;99.90;;;;;;5053854;28;20119;-85
2021/10/20 12:26:01;;;;;;;3.38;1.35;;;21.80;99.90;;;;;;5053852;28;20056;-85
2021/10/20 12:28:29;;;;;;;3.95;1.52;;;21.80;99.90;;;;;;5053758;28;20047;-85
2021/10/20 12:30:54;;;;;;;4.32;1.58;;;21.60;99.90;;;;;;5053661;28;20388;-85
2021/10/20 12:33:22;;;;;;;3.20;1.60;;;21.10;99.90;;;;;;5053712;28;20017;-85
2021/10/20 12:35:50;;;;;;;5.22;1.60;;;20.70;99.90;;;;;;5053558;28;20082;-83
2021/10/20 12:38:16;;;;;;;4.82;1.77;;;20.40;99.90;;;;;;5053505;28;20078;-86
2021/10/20 12:40:45;;;;;;;3.95;1.48;;;20.20;99.90;;;;;;5053510;28;20377;-86
2021/10/20 12:43:16;;;;;;;4.05;1.67;;;20.00;99.90;;;;;;5053456;28;20480;-86
2021/10/20 12:45:42;;;;;;;5.45;1.70;;;19.90;99.90;;;;;;5053533;28;20028;-84
2021/10/20 12:48:09;;;;;;;7.22;1.48;;;19.80;99.90;;;;;;5053323;28;20393;-84
2021/10/20 12:50:38;;;;;;;2.40;1.70;;;19.70;99.90;;;;;;5053386;28;20021;-84